Time;durP1;ratioP1;P1;durP2;ratioP2;P2;SDS_P1;SDS_P2;PMS_P1;PMS_P2;Temp;Humidity;BMP_temperature;BMP_pressure;BME280_temperature;BME280_humidity;BME280_pressure;Samples;Min_cycle;Max_cycle;Signal;HPM_P1;HPM_P2
2022/08/19 00:00:53;;;;;;;25.97;23.83;;;;;;;;;;5096081;28;20421;-78
2022/08/19 00:03:21;;;;;;;26.93;24.90;;;;;;;;;;5096019;28;20884;-78
2022/08/19 00:05:48;;;;;;;26.27;24.27;;;;;;;;;;5095773;28;20863;-78
2022/08/19 00:08:15;;;;;;;26.40;24.77;;;;;;;;;;5095904;28;20411;-78
2022/08/19 00:10:43;;;;;;;26.50;24.67;;;;;;;;;;5095819;28;20899;-78
2022/08/19 00:13:10;;;;;;;25.17;22.90;;;;;;;;;;5095965;28;20428;-78
2022/08/19 00:15:39;;;;;;;26.17;24.40;;;;;;;;;;5096069;28;20424;-78
2022/08/19 00:18:06;;;;;;;25.80;24.00;;;;;;;;;;5096039;28;20439;-79
2022/08/19 00:20:34;;;;;;;26.27;24.47;;;;;;;;;;5095976;28;20452;-79
2022/08/19 00:23:03;;;;;;;27.40;25.30;;;;;;;;;;5095706;28;20462;-78
2022/08/19 00:25:31;;;;;;;25.50;23.70;;;;;;;;;;5095796;28;20422;-78
2022/08/19 00:27:58;;;;;;;26.87;24.70;;;;;;;;;;5095533;28;20415;-78
2022/08/19 00:30:27;;;;;;;24.77;23.27;;;;;;;;;;5095866;28;20443;-78
2022/08/19 00:32:56;;;;;;;26.50;24.40;;;;;;;;;;5095761;28;20414;-78
2022/08/19 00:35:23;;;;;;;25.87;24.20;;;;;;;;;;5095412;28;20415;-78
2022/08/19 00:37:51;;;;;;;26.07;24.37;;;;;;;;;;5095666;28;20440;-78
2022/08/19 00:40:19;;;;;;;25.43;23.90;;;;;;;;;;5095192;28;20430;-79
2022/08/19 00:42:46;;;;;;;27.23;25.23;;;;;;;;;;5095338;28;20402;-78
2022/08/19 00:45:16;;;;;;;25.33;23.63;;;;;;;;;;5095219;28;20447;-78
2022/08/19 00:47:44;;;;;;;25.97;24.10;;;;;;;;;;5095404;28;20458;-78
2022/08/19 00:50:14;;;;;;;25.67;23.70;;;;;;;;;;5095382;28;20448;-78
2022/08/19 00:52:44;;;;;;;25.43;23.77;;;;;;;;;;5095131;28;20446;-77
2022/08/19 00:55:14;;;;;;;25.43;23.53;;;;;;;;;;5094818;28;20548;-78
2022/08/19 00:57:44;;;;;;;26.67;24.50;;;;;;;;;;5094898;28;20443;-78
2022/08/19 01:00:13;;;;;;;26.13;24.23;;;;;;;;;;5095256;28;20431;-78
2022/08/19 01:02:42;;;;;;;26.63;24.70;;;;;;;;;;5094837;28;20886;-78
2022/08/19 01:05:10;;;;;;;24.97;23.33;;;;;;;;;;5094638;28;20485;-79
2022/08/19 01:07:40;;;;;;;26.43;24.63;;;;;;;;;;5094880;28;20482;-78
2022/08/19 01:10:08;;;;;;;26.47;24.67;;;;;;;;;;5095080;28;20411;-78
2022/08/19 01:12:36;;;;;;;26.53;24.57;;;;;;;;;;5094945;28;20439;-78
2022/08/19 01:15:04;;;;;;;27.00;24.90;;;;;;;;;;5094905;28;20840;-78
2022/08/19 01:17:31;;;;;;;26.70;24.67;;;;;;;;;;5093297;28;20962;-78
2022/08/19 01:19:59;;;;;;;27.27;25.43;;;;;;;;;;5094832;28;20910;-78
2022/08/19 01:22:32;;;;;;;27.60;25.63;;;;;;;;;;5094545;28;20444;-78
2022/08/19 01:24:59;;;;;;;26.73;24.70;;;;;;;;;;5094329;28;20406;-78
2022/08/19 01:27:27;;;;;;;27.90;25.50;;;;;;;;;;5094527;28;20529;-78
2022/08/19 01:29:54;;;;;;;26.10;24.20;;;;;;;;;;5094670;28;20418;-78
2022/08/19 01:32:21;;;;;;;27.73;25.40;;;;;;;;;;5094557;28;20446;-78
2022/08/19 01:34:49;;;;;;;30.70;28.20;;;;;;;;;;5094329;28;20442;-78
2022/08/19 01:37:16;;;;;;;29.73;27.43;;;;;;;;;;5094117;28;20417;-78
2022/08/19 01:39:45;;;;;;;28.80;26.50;;;;;;;;;;5094144;28;20472;-79
2022/08/19 01:42:13;;;;;;;29.73;27.43;;;;;;;;;;5094100;28;20422;-78
2022/08/19 01:44:40;;;;;;;29.50;27.20;;;;;;;;;;5094361;28;20413;-79
2022/08/19 01:47:09;;;;;;;29.73;27.30;;;;;;;;;;5093853;28;20974;-79
2022/08/19 01:49:37;;;;;;;30.07;27.77;;;;;;;;;;5093575;28;20426;-78
2022/08/19 01:52:05;;;;;;;29.07;27.07;;;;;;;;;;5093846;28;20432;-79
2022/08/19 01:54:32;;;;;;;28.70;26.37;;;;;;;;;;5093787;28;20817;-77
2022/08/19 01:57:03;;;;;;;30.30;28.00;;;;;;;;;;5094095;28;20416;-78
2022/08/19 01:59:31;;;;;;;29.03;27.03;;;;;;;;;;5094068;28;20411;-78
2022/08/19 02:01:59;;;;;;;29.77;27.77;;;;;;;;;;5093965;28;20411;-78
2022/08/19 02:04:26;;;;;;;30.70;28.20;;;;;;;;;;5093884;28;20449;-79
2022/08/19 02:06:54;;;;;;;29.20;26.73;;;;;;;;;;5093461;28;20491;-78
2022/08/19 02:09:21;;;;;;;28.60;26.60;;;;;;;;;;5093901;28;20416;-77
2022/08/19 02:11:49;;;;;;;29.80;27.10;;;;;;;;;;5093799;28;20417;-78
2022/08/19 02:14:18;;;;;;;27.70;25.53;;;;;;;;;;5093837;28;20538;-78
2022/08/19 02:16:45;;;;;;;28.20;26.23;;;;;;;;;;5092881;28;20433;-79
2022/08/19 02:19:12;;;;;;;26.57;24.77;;;;;;;;;;5093775;28;20418;-78
2022/08/19 02:21:40;;;;;;;27.80;25.90;;;;;;;;;;5093424;28;20893;-78
2022/08/19 02:24:07;;;;;;;28.13;25.83;;;;;;;;;;5093639;28;20811;-78
2022/08/19 02:26:34;;;;;;;30.07;27.67;;;;;;;;;;5093387;28;20453;-78
2022/08/19 02:29:02;;;;;;;27.83;25.87;;;;;;;;;;5093539;28;20471;-77
2022/08/19 02:31:31;;;;;;;28.30;26.30;;;;;;;;;;5093619;28;20729;-79
2022/08/19 02:33:58;;;;;;;30.07;27.90;;;;;;;;;;5093421;28;20435;-78
2022/08/19 02:36:27;;;;;;;28.27;26.17;;;;;;;;;;5093036;28;20436;-78
2022/08/19 02:38:54;;;;;;;29.20;27.20;;;;;;;;;;5093472;28;20487;-78
2022/08/19 02:41:22;;;;;;;28.30;26.00;;;;;;;;;;5093012;28;20414;-78
2022/08/19 02:43:50;;;;;;;28.13;25.90;;;;;;;;;;5093382;28;20423;-79
2022/08/19 02:46:20;;;;;;;28.43;26.47;;;;;;;;;;5093106;28;20404;-78
2022/08/19 02:48:49;;;;;;;28.07;25.63;;;;;;;;;;5093273;28;20486;-78
2022/08/19 02:51:18;;;;;;;27.13;25.13;;;;;;;;;;5093293;28;20435;-78
2022/08/19 02:53:45;;;;;;;29.07;27.07;;;;;;;;;;5093161;28;20455;-79
2022/08/19 02:56:13;;;;;;;26.70;24.97;;;;;;;;;;5092656;28;20421;-78
2022/08/19 02:58:41;;;;;;;27.23;25.33;;;;;;;;;;5093174;28;20446;-78
2022/08/19 03:01:08;;;;;;;26.37;24.60;;;;;;;;;;5092850;28;21004;-79
2022/08/19 03:03:35;;;;;;;27.00;25.20;;;;;;;;;;5092719;28;20418;-77
2022/08/19 03:06:12;;;;;;;26.30;24.50;;;;;;;;;;5092769;28;20761;-78
2022/08/19 03:08:40;;;;;;;27.87;25.67;;;;;;;;;;5092899;28;20921;-78
2022/08/19 03:11:07;;;;;;;27.30;25.40;;;;;;;;;;5092745;28;20905;-78
2022/08/19 03:13:35;;;;;;;26.13;24.50;;;;;;;;;;5091407;28;20462;-78
2022/08/19 03:16:06;;;;;;;26.13;24.37;;;;;;;;;;5092911;28;20412;-77
2022/08/19 03:18:33;;;;;;;26.43;24.63;;;;;;;;;;5092882;28;20499;-78
2022/08/19 03:21:00;;;;;;;25.70;24.10;;;;;;;;;;5092620;28;20401;-78
2022/08/19 03:23:29;;;;;;;28.00;25.80;;;;;;;;;;5092918;28;20415;-78
2022/08/19 03:25:56;;;;;;;27.03;25.13;;;;;;;;;;5092635;28;20416;-78
2022/08/19 03:28:24;;;;;;;28.40;26.30;;;;;;;;;;5093809;28;20983;-79
2022/08/19 03:30:58;;;;;;;27.17;25.37;;;;;;;;;;5096769;28;20955;-78
2022/08/19 03:33:25;;;;;;;27.07;25.37;;;;;;;;;;5096622;28;20412;-78
2022/08/19 03:36:09;;;;;;;26.47;24.60;;;;;;;;;;5096799;28;20782;-78
2022/08/19 03:38:38;;;;;;;27.27;25.40;;;;;;;;;;5096485;28;20478;-78
2022/08/19 03:41:07;;;;;;;27.10;25.30;;;;;;;;;;5096460;28;20487;-78
2022/08/19 03:43:35;;;;;;;26.90;25.00;;;;;;;;;;5096801;28;20508;-79
2022/08/19 03:46:03;;;;;;;27.23;25.33;;;;;;;;;;5096566;28;20411;-78
2022/08/19 03:48:31;;;;;;;27.40;25.10;;;;;;;;;;5096570;28;20477;-78
2022/08/19 03:50:59;;;;;;;27.20;25.10;;;;;;;;;;5096303;28;20450;-78
2022/08/19 03:53:27;;;;;;;27.17;25.20;;;;;;;;;;5096535;28;20480;-79
2022/08/19 03:55:56;;;;;;;26.67;24.87;;;;;;;;;;5095819;28;20491;-78
2022/08/19 03:58:23;;;;;;;27.67;25.57;;;;;;;;;;5096409;28;20410;-78
2022/08/19 04:00:51;;;;;;;28.47;26.00;;;;;;;;;;5096346;28;20505;-78
2022/08/19 04:03:19;;;;;;;28.50;26.30;;;;;;;;;;5096376;28;20448;-78
2022/08/19 04:05:47;;;;;;;27.70;25.50;;;;;;;;;;5096161;28;20463;-78
2022/08/19 04:08:20;;;;;;;27.70;25.07;;;;;;;;;;5095880;28;20892;-78
2022/08/19 04:10:47;;;;;;;28.43;26.57;;;;;;;;;;5095863;28;20484;-78
2022/08/19 04:13:17;;;;;;;26.80;24.90;;;;;;;;;;5095984;28;20785;-78
2022/08/19 04:15:46;;;;;;;25.93;24.17;;;;;;;;;;5095738;28;20439;-79
2022/08/19 04:18:14;;;;;;;26.50;24.67;;;;;;;;;;5096109;28;20420;-79
2022/08/19 04:20:45;;;;;;;25.77;23.73;;;;;;;;;;5096081;28;20438;-78
2022/08/19 04:23:12;;;;;;;26.77;24.90;;;;;;;;;;5095681;28;20450;-79
2022/08/19 04:25:41;;;;;;;25.37;23.77;;;;;;;;;;5095772;28;20445;-78
2022/08/19 04:28:09;;;;;;;27.70;25.60;;;;;;;;;;5095723;28;20814;-78
2022/08/19 04:30:42;;;;;;;27.63;25.67;;;;;;;;;;5095883;28;20442;-78
2022/08/19 04:33:10;;;;;;;27.70;25.80;;;;;;;;;;5095794;28;20442;-78
2022/08/19 04:35:38;;;;;;;29.40;27.20;;;;;;;;;;5095723;28;20462;-77
2022/08/19 04:38:06;;;;;;;28.40;26.20;;;;;;;;;;5095605;28;20432;-78
2022/08/19 04:43:18;;;;;;;26.83;25.00;;;;;;;;;;5095415;28;20438;-80
2022/08/19 04:45:47;;;;;;;27.70;25.90;;;;;;;;;;5095187;28;20445;-79
2022/08/19 04:48:15;;;;;;;28.00;25.80;;;;;;;;;;5095080;28;20465;-78
2022/08/19 04:50:43;;;;;;;28.27;26.10;;;;;;;;;;5095116;28;20421;-77
2022/08/19 04:53:11;;;;;;;28.60;26.47;;;;;;;;;;5095374;28;20422;-79
2022/08/19 04:55:42;;;;;;;27.33;25.40;;;;;;;;;;5094840;28;20486;-79
2022/08/19 04:58:10;;;;;;;29.33;27.07;;;;;;;;;;5095016;28;20438;-80
2022/08/19 05:00:39;;;;;;;29.13;27.10;;;;;;;;;;5095159;28;20466;-80
2022/08/19 05:03:08;;;;;;;29.50;27.57;;;;;;;;;;5094895;28;20435;-79
2022/08/19 05:05:35;;;;;;;29.80;27.53;;;;;;;;;;5093395;28;20450;-79
2022/08/19 05:08:03;;;;;;;28.40;26.30;;;;;;;;;;5095045;28;20878;-79
2022/08/19 05:10:31;;;;;;;29.40;26.77;;;;;;;;;;5095063;28;20420;-79
2022/08/19 05:12:58;;;;;;;30.33;28.03;;;;;;;;;;5095010;28;20464;-80
2022/08/19 05:15:26;;;;;;;30.40;28.00;;;;;;;;;;5094937;28;20406;-80
2022/08/19 05:23:26;;;;;;;28.17;26.20;;;;;;;;;;5094614;28;20418;-79
2022/08/19 05:25:53;;;;;;;28.27;26.23;;;;;;;;;;5094566;28;20457;-79
2022/08/19 05:28:21;;;;;;;29.90;27.30;;;;;;;;;;5094669;28;20489;-81
2022/08/19 05:30:50;;;;;;;30.60;28.40;;;;;;;;;;5094457;28;20421;-79
2022/08/19 05:33:18;;;;;;;29.27;26.90;;;;;;;;;;5094606;28;20478;-80
2022/08/19 05:35:48;;;;;;;29.10;27.03;;;;;;;;;;5094219;28;20447;-80
2022/08/19 05:38:15;;;;;;;29.60;27.40;;;;;;;;;;5094533;28;20489;-79
2022/08/19 05:40:47;;;;;;;28.20;26.20;;;;;;;;;;5094515;28;20446;-80
2022/08/19 05:43:16;;;;;;;27.80;25.90;;;;;;;;;;5094104;28;20491;-80
2022/08/19 05:45:43;;;;;;;28.57;26.67;;;;;;;;;;5094331;28;20459;-79
2022/08/19 05:48:12;;;;;;;29.87;27.30;;;;;;;;;;5093946;28;20460;-80
2022/08/19 05:50:39;;;;;;;28.33;26.33;;;;;;;;;;5093997;28;20443;-79
2022/08/19 05:53:09;;;;;;;29.40;27.27;;;;;;;;;;5094309;28;20414;-80
2022/08/19 05:55:38;;;;;;;32.70;30.30;;;;;;;;;;5093595;28;20495;-79
2022/08/19 05:58:07;;;;;;;31.80;29.10;;;;;;;;;;5093797;28;20878;-79
2022/08/19 06:00:34;;;;;;;29.80;27.70;;;;;;;;;;5093647;28;20474;-79
2022/08/19 06:03:03;;;;;;;32.87;29.67;;;;;;;;;;5076326;28;20414;-78
2022/08/19 06:05:30;;;;;;;31.23;28.80;;;;;;;;;;5071950;28;20456;-80
2022/08/19 06:07:58;;;;;;;31.70;29.30;;;;;;;;;;5073261;28;20471;-79
2022/08/19 06:10:27;;;;;;;32.13;29.60;;;;;;;;;;5073388;28;20877;-79
2022/08/19 06:12:55;;;;;;;34.87;31.93;;;;;;;;;;5073727;28;21021;-80
2022/08/19 06:15:25;;;;;;;34.10;31.20;;;;;;;;;;5073948;28;20446;-80
2022/08/19 06:17:52;;;;;;;34.00;31.30;;;;;;;;;;5073604;28;20982;-80
2022/08/19 06:20:20;;;;;;;32.33;29.63;;;;;;;;;;5073227;28;20794;-79
2022/08/19 06:22:49;;;;;;;33.20;30.40;;;;;;;;;;5073845;28;20434;-80
2022/08/19 06:25:17;;;;;;;32.90;29.97;;;;;;;;;;5072943;28;20449;-80
2022/08/19 06:27:46;;;;;;;32.10;29.70;;;;;;;;;;5072959;28;20975;-78
2022/08/19 06:30:14;;;;;;;33.20;30.40;;;;;;;;;;5072448;28;20420;-79
2022/08/19 06:32:42;;;;;;;31.97;29.27;;;;;;;;;;5072748;28;20418;-80
2022/08/19 06:35:10;;;;;;;30.30;28.10;;;;;;;;;;5072805;28;20485;-80
2022/08/19 06:37:38;;;;;;;31.33;29.00;;;;;;;;;;5071289;28;20458;-79
2022/08/19 06:40:08;;;;;;;31.40;28.60;;;;;;;;;;5072479;28;20893;-80
2022/08/19 06:42:35;;;;;;;30.10;28.00;;;;;;;;;;5072496;28;20507;-78
2022/08/19 06:45:04;;;;;;;30.83;28.30;;;;;;;;;;5072592;28;20409;-81
2022/08/19 06:47:32;;;;;;;31.83;29.07;;;;;;;;;;5072601;28;20418;-80
2022/08/19 06:50:02;;;;;;;30.30;28.07;;;;;;;;;;5072154;28;20908;-79
2022/08/19 06:52:30;;;;;;;29.67;27.50;;;;;;;;;;5072252;28;20446;-80
2022/08/19 06:54:57;;;;;;;30.87;28.40;;;;;;;;;;5071776;28;20467;-79
2022/08/19 06:57:25;;;;;;;30.93;28.50;;;;;;;;;;5072456;28;20407;-80
2022/08/19 06:59:52;;;;;;;31.70;29.07;;;;;;;;;;5073292;28;20742;-80
2022/08/19 07:02:25;;;;;;;30.37;28.27;;;;;;;;;;5073139;28;20410;-80
2022/08/19 07:04:53;;;;;;;28.60;26.30;;;;;;;;;;5072859;28;20449;-80
2022/08/19 07:07:22;;;;;;;29.30;27.30;;;;;;;;;;5072844;28;20414;-80
2022/08/19 07:09:50;;;;;;;27.47;25.47;;;;;;;;;;5072761;28;20989;-81
2022/08/19 07:12:17;;;;;;;27.80;25.67;;;;;;;;;;5072916;28;20423;-80
2022/08/19 07:14:47;;;;;;;25.73;23.93;;;;;;;;;;5072524;28;20415;-81
2022/08/19 07:17:14;;;;;;;27.63;25.33;;;;;;;;;;5072446;28;20830;-81
2022/08/19 07:19:43;;;;;;;25.50;23.80;;;;;;;;;;5072705;28;20422;-81
2022/08/19 07:22:10;;;;;;;25.93;24.23;;;;;;;;;;5072761;28;20462;-82
2022/08/19 07:24:38;;;;;;;26.13;24.40;;;;;;;;;;5072303;28;20411;-80
2022/08/19 07:27:07;;;;;;;26.90;24.90;;;;;;;;;;5072631;28;20444;-80
2022/08/19 07:29:36;;;;;;;24.70;22.90;;;;;;;;;;5072249;28;20461;-80
2022/08/19 07:32:05;;;;;;;24.87;23.37;;;;;;;;;;5072298;28;20817;-79
2022/08/19 07:34:36;;;;;;;26.23;24.40;;;;;;;;;;5072272;28;20418;-79
2022/08/19 07:37:05;;;;;;;25.13;23.50;;;;;;;;;;5072488;28;20443;-79
2022/08/19 07:39:35;;;;;;;26.60;24.80;;;;;;;;;;5072306;28;20453;-79
2022/08/19 07:42:03;;;;;;;25.80;24.20;;;;;;;;;;5072535;28;20901;-80
2022/08/19 07:44:31;;;;;;;24.27;22.43;;;;;;;;;;5072758;28;20436;-83
2022/08/19 07:46:59;;;;;;;24.63;23.03;;;;;;;;;;5072634;28;20411;-79
2022/08/19 07:49:27;;;;;;;24.33;22.73;;;;;;;;;;5072393;28;20459;-79
2022/08/19 07:51:55;;;;;;;24.40;22.90;;;;;;;;;;5072168;28;20427;-79
2022/08/19 07:54:25;;;;;;;25.13;23.60;;;;;;;;;;5071997;28;20806;-77
2022/08/19 07:56:53;;;;;;;25.20;23.47;;;;;;;;;;5072232;28;20423;-79
2022/08/19 07:59:20;;;;;;;23.70;22.10;;;;;;;;;;5072159;28;20793;-86
2022/08/19 08:01:49;;;;;;;24.30;22.60;;;;;;;;;;5072403;28;20895;-79
2022/08/19 08:09:49;;;;;;;24.70;23.20;;;;;;;;;;5071977;28;20976;-79
2022/08/19 08:12:17;;;;;;;25.17;23.37;;;;;;;;;;5071934;28;20415;-78
2022/08/19 08:14:47;;;;;;;24.40;22.80;;;;;;;;;;5072466;28;20418;-79
2022/08/19 08:17:14;;;;;;;23.17;21.87;;;;;;;;;;5075885;28;20830;-79
2022/08/19 08:19:42;;;;;;;24.27;22.47;;;;;;;;;;5075440;28;20412;-79
2022/08/19 08:23:21;;;;;;;25.53;23.60;;;;;;;;;;5075443;28;20785;-79
2022/08/19 08:25:02;;;;;;;24.90;23.50;;;;;;;;;;5075080;28;20510;-79
2022/08/19 08:27:30;;;;;;;23.97;22.47;;;;;;;;;;5075717;28;20880;-80
2022/08/19 08:29:58;;;;;;;27.00;25.10;;;;;;;;;;5075198;28;20496;-80
2022/08/19 08:32:25;;;;;;;26.50;24.90;;;;;;;;;;5075203;28;20438;-80
2022/08/19 08:34:54;;;;;;;26.13;24.33;;;;;;;;;;5075404;28;20452;-79
2022/08/19 08:37:22;;;;;;;24.33;22.90;;;;;;;;;;5075256;28;20408;-80
2022/08/19 08:39:49;;;;;;;26.87;24.87;;;;;;;;;;5075465;28;20832;-80
2022/08/19 08:42:22;;;;;;;25.27;23.77;;;;;;;;;;5075074;28;20418;-81
2022/08/19 08:44:53;;;;;;;24.50;22.93;;;;;;;;;;5075094;28;20416;-80
2022/08/19 08:47:22;;;;;;;26.13;24.20;;;;;;;;;;5074965;28;20419;-80
2022/08/19 08:49:53;;;;;;;27.20;25.57;;;;;;;;;;5074903;28;20964;-79
2022/08/19 08:52:22;;;;;;;26.37;24.80;;;;;;;;;;5075204;28;20426;-80
2022/08/19 08:54:51;;;;;;;25.00;23.60;;;;;;;;;;5074926;28;20488;-80
2022/08/19 08:57:25;;;;;;;26.43;24.73;;;;;;;;;;5075289;28;20418;-79
2022/08/19 08:59:53;;;;;;;24.90;23.07;;;;;;;;;;5075066;28;20502;-79
2022/08/19 09:02:21;;;;;;;27.80;25.60;;;;;;;;;;5074712;28;20942;-79
2022/08/19 09:04:48;;;;;;;25.53;23.93;;;;;;;;;;5075023;28;20447;-78
2022/08/19 09:07:26;;;;;;;25.33;23.73;;;;;;;;;;5075403;28;20465;-92
2022/08/19 09:09:56;;;;;;;25.63;24.07;;;;;;;;;;5073920;28;20498;-78
2022/08/19 09:12:29;;;;;;;25.90;24.10;;;;;;;;;;5075205;28;20477;-88
2022/08/19 09:14:58;;;;;;;25.33;23.70;;;;;;;;;;5074815;28;20418;-78
2022/08/19 09:17:30;;;;;;;23.07;21.77;;;;;;;;;;5074804;28;20448;-80
2022/08/19 09:19:58;;;;;;;25.37;23.87;;;;;;;;;;5074474;28;20456;-79
2022/08/19 09:22:26;;;;;;;24.20;22.77;;;;;;;;;;5074288;28;20455;-79
2022/08/19 09:24:54;;;;;;;24.70;23.20;;;;;;;;;;5074358;28;20540;-79
2022/08/19 09:27:23;;;;;;;23.43;22.03;;;;;;;;;;5074209;28;20416;-79
2022/08/19 09:29:53;;;;;;;24.97;23.37;;;;;;;;;;5072872;28;20498;-79
2022/08/19 09:32:21;;;;;;;23.80;22.20;;;;;;;;;;5074332;28;20502;-79
2022/08/19 09:34:48;;;;;;;24.13;22.63;;;;;;;;;;5074144;28;20419;-78
2022/08/19 09:37:15;;;;;;;23.33;21.93;;;;;;;;;;5073975;28;20420;-79
2022/08/19 09:39:43;;;;;;;24.63;23.13;;;;;;;;;;5074239;28;20787;-79
2022/08/19 09:42:14;;;;;;;23.10;21.60;;;;;;;;;;5073938;28;20442;-85
2022/08/19 09:44:41;;;;;;;24.70;23.10;;;;;;;;;;5074221;28;20423;-78
2022/08/19 09:47:11;;;;;;;24.30;22.80;;;;;;;;;;5073798;28;20766;-78
2022/08/19 09:49:39;;;;;;;26.60;24.70;;;;;;;;;;5073733;28;20961;-78
2022/08/19 09:52:07;;;;;;;24.17;22.50;;;;;;;;;;5073995;28;20431;-78
2022/08/19 09:54:35;;;;;;;23.97;22.47;;;;;;;;;;5073369;28;20452;-78
2022/08/19 09:57:02;;;;;;;25.33;23.60;;;;;;;;;;5073627;28;20416;-79
2022/08/19 09:59:30;;;;;;;24.30;22.90;;;;;;;;;;5073912;28;20417;-78
2022/08/19 10:01:57;;;;;;;24.70;23.00;;;;;;;;;;5073602;28;20431;-79
2022/08/19 10:05:47;;;;;;;25.07;23.37;;;;;;;;;;5073649;28;20445;-79
2022/08/19 10:07:14;;;;;;;24.60;22.90;;;;;;;;;;5073296;28;20412;-78
2022/08/19 10:09:42;;;;;;;24.40;22.80;;;;;;;;;;5073615;28;20460;-78
2022/08/19 10:12:09;;;;;;;24.93;23.13;;;;;;;;;;5073405;28;20517;-79
2022/08/19 10:14:37;;;;;;;24.50;23.00;;;;;;;;;;5073294;28;20882;-78
2022/08/19 10:17:05;;;;;;;25.23;23.63;;;;;;;;;;5071952;28;20968;-78
2022/08/19 10:19:35;;;;;;;25.30;23.70;;;;;;;;;;5073527;28;20416;-78
2022/08/19 10:22:05;;;;;;;24.53;23.03;;;;;;;;;;5073399;28;20420;-78
2022/08/19 10:24:33;;;;;;;25.60;23.90;;;;;;;;;;5073488;28;20796;-78
2022/08/19 10:27:03;;;;;;;26.00;24.30;;;;;;;;;;5073334;28;20416;-78
2022/08/19 10:29:31;;;;;;;25.43;23.90;;;;;;;;;;5073089;28;20461;-77
2022/08/19 10:31:59;;;;;;;26.23;24.43;;;;;;;;;;5073270;28;20436;-78
2022/08/19 10:34:27;;;;;;;24.63;23.13;;;;;;;;;;5073271;28;20417;-79
2022/08/19 10:36:56;;;;;;;24.83;23.40;;;;;;;;;;5072814;28;20412;-78
2022/08/19 10:39:23;;;;;;;26.40;24.80;;;;;;;;;;5072586;28;20404;-78
2022/08/19 10:41:50;;;;;;;26.17;24.67;;;;;;;;;;5072823;28;20778;-79
2022/08/19 10:44:19;;;;;;;27.10;25.40;;;;;;;;;;5072779;28;20415;-78
2022/08/19 10:46:46;;;;;;;25.83;24.33;;;;;;;;;;5072834;28;20445;-79
2022/08/19 10:49:14;;;;;;;26.93;25.23;;;;;;;;;;5072592;28;20444;-79
2022/08/19 10:56:50;;;;;;;28.00;26.20;;;;;;;;;;5072507;28;20476;-79
2022/08/19 10:57:15;;;;;;;27.60;25.80;;;;;;;;;;5072676;28;20769;-79
2022/08/19 10:59:43;;;;;;;26.37;24.57;;;;;;;;;;5072673;28;20912;-78
2022/08/19 11:02:11;;;;;;;25.63;24.13;;;;;;;;;;5072057;28;20440;-78
2022/08/19 11:04:39;;;;;;;26.33;24.93;;;;;;;;;;5072478;28;21014;-78
2022/08/19 11:07:07;;;;;;;26.10;24.50;;;;;;;;;;5072927;28;20450;-79
2022/08/19 11:09:40;;;;;;;25.43;23.83;;;;;;;;;;5072718;28;20448;-79
2022/08/19 11:12:08;;;;;;;25.40;23.90;;;;;;;;;;5072871;28;20436;-79
2022/08/19 11:14:36;;;;;;;25.83;24.33;;;;;;;;;;5072636;28;20478;-81
2022/08/19 11:17:04;;;;;;;25.40;23.80;;;;;;;;;;5072192;28;20445;-82
2022/08/19 11:19:31;;;;;;;25.87;24.10;;;;;;;;;;5072517;28;20491;-81
2022/08/19 11:22:02;;;;;;;26.00;24.47;;;;;;;;;;5072364;28;20797;-79
2022/08/19 11:24:30;;;;;;;25.50;24.00;;;;;;;;;;5072775;28;20452;-79
2022/08/19 11:27:04;;;;;;;26.40;24.60;;;;;;;;;;5072764;28;20422;-79
2022/08/19 11:29:31;;;;;;;26.17;24.57;;;;;;;;;;5072320;28;20440;-79
2022/08/19 11:31:59;;;;;;;25.73;24.13;;;;;;;;;;5072310;28;20417;-79
2022/08/19 11:34:29;;;;;;;25.07;23.60;;;;;;;;;;5072296;28;20790;-79
2022/08/19 11:36:58;;;;;;;26.20;24.40;;;;;;;;;;5072440;28;20900;-78
2022/08/19 11:39:27;;;;;;;24.83;23.43;;;;;;;;;;5072669;28;20508;-79
2022/08/19 11:41:54;;;;;;;25.67;24.23;;;;;;;;;;5072563;28;20901;-79
2022/08/19 11:44:23;;;;;;;24.80;23.33;;;;;;;;;;5072075;28;20419;-79
2022/08/19 11:46:50;;;;;;;26.00;24.50;;;;;;;;;;5072296;28;20409;-76
2022/08/19 11:49:19;;;;;;;25.80;24.27;;;;;;;;;;5074118;28;20424;-85
2022/08/19 11:51:47;;;;;;;25.93;24.33;;;;;;;;;;5077295;28;20485;-78
2022/08/19 11:54:15;;;;;;;25.70;24.20;;;;;;;;;;5076023;28;20543;-78
2022/08/19 11:56:43;;;;;;;25.67;24.17;;;;;;;;;;5076048;28;20421;-91
2022/08/19 11:59:11;;;;;;;25.57;24.07;;;;;;;;;;5077441;28;20438;-89
2022/08/19 12:01:42;;;;;;;26.53;24.93;;;;;;;;;;5075700;28;20926;-94
2022/08/19 12:04:09;;;;;;;24.30;23.00;;;;;;;;;;5074836;28;20529;-79
2022/08/19 12:06:39;;;;;;;25.80;24.40;;;;;;;;;;5076252;28;20410;-82
2022/08/19 12:09:08;;;;;;;25.90;24.47;;;;;;;;;;5076463;28;20409;-84
2022/08/19 12:11:36;;;;;;;25.40;24.00;;;;;;;;;;5076041;28;20461;-79
2022/08/19 12:14:03;;;;;;;26.37;24.60;;;;;;;;;;5075540;28;20846;-79
2022/08/19 12:16:32;;;;;;;25.30;23.90;;;;;;;;;;5075800;28;20504;-79
2022/08/19 12:19:03;;;;;;;26.07;24.53;;;;;;;;;;5075505;28;20419;-79
2022/08/19 12:21:32;;;;;;;26.77;25.27;;;;;;;;;;5075733;28;20424;-79
2022/08/19 12:24:00;;;;;;;26.30;24.80;;;;;;;;;;5075414;28;20416;-79
2022/08/19 12:26:29;;;;;;;26.10;24.60;;;;;;;;;;5075235;28;20414;-79
2022/08/19 12:28:58;;;;;;;25.53;24.07;;;;;;;;;;5075224;28;20406;-79
2022/08/19 12:31:26;;;;;;;26.07;24.57;;;;;;;;;;5075579;28;20457;-79
2022/08/19 12:33:53;;;;;;;26.07;24.57;;;;;;;;;;5075267;28;20833;-79
2022/08/19 12:36:22;;;;;;;26.10;24.60;;;;;;;;;;5075370;28;20420;-82
2022/08/19 12:38:50;;;;;;;26.47;24.87;;;;;;;;;;5075589;28;20420;-78
2022/08/19 12:41:18;;;;;;;26.43;24.90;;;;;;;;;;5075429;28;20416;-77
2022/08/19 12:43:45;;;;;;;27.43;25.77;;;;;;;;;;5075037;28;20450;-85
2022/08/19 12:46:13;;;;;;;27.07;25.27;;;;;;;;;;5075808;28;20935;-78
2022/08/19 12:48:42;;;;;;;28.33;26.60;;;;;;;;;;5074990;28;20421;-78
2022/08/19 12:51:10;;;;;;;25.70;24.10;;;;;;;;;;5075115;28;20461;-79
2022/08/19 12:53:39;;;;;;;26.63;25.13;;;;;;;;;;5074930;28;20909;-78
2022/08/19 12:56:07;;;;;;;26.80;25.30;;;;;;;;;;5074540;28;20459;-78
2022/08/19 12:58:35;;;;;;;27.80;26.10;;;;;;;;;;5074801;28;20444;-78
2022/08/19 13:01:07;;;;;;;26.60;25.10;;;;;;;;;;5074331;28;20473;-79
2022/08/19 13:03:35;;;;;;;25.30;23.90;;;;;;;;;;5074624;28;20479;-79
2022/08/19 13:06:02;;;;;;;27.00;25.50;;;;;;;;;;5074929;28;20440;-78
2022/08/19 13:08:29;;;;;;;26.00;24.50;;;;;;;;;;5074941;28;20409;-79
2022/08/19 13:10:59;;;;;;;27.43;25.73;;;;;;;;;;5074470;28;20457;-79
2022/08/19 13:13:26;;;;;;;27.07;25.30;;;;;;;;;;5075343;28;20505;-84
2022/08/19 13:15:54;;;;;;;25.83;24.33;;;;;;;;;;5075365;28;20407;-80
2022/08/19 13:18:21;;;;;;;25.80;24.30;;;;;;;;;;5074847;28;20416;-80
2022/08/19 13:20:49;;;;;;;26.80;25.20;;;;;;;;;;5074479;28;20425;-77
2022/08/19 13:23:16;;;;;;;27.30;25.73;;;;;;;;;;5074550;28;20947;-76
2022/08/19 13:25:43;;;;;;;27.13;25.40;;;;;;;;;;5073794;28;20766;-86
2022/08/19 13:28:12;;;;;;;26.73;25.03;;;;;;;;;;5074511;28;20430;-76
2022/08/19 13:33:26;;;;;;;26.67;24.80;;;;;;;;;;5074316;28;20463;-76
2022/08/19 13:36:00;;;;;;;26.37;24.70;;;;;;;;;;5074545;28;20407;-92
2022/08/19 13:38:28;;;;;;;26.50;24.90;;;;;;;;;;5074838;28;20815;-77
2022/08/19 13:40:56;;;;;;;28.00;26.30;;;;;;;;;;5074108;28;20417;-77
2022/08/19 13:43:27;;;;;;;27.13;25.60;;;;;;;;;;5074395;28;20514;-77
2022/08/19 13:45:56;;;;;;;27.67;25.70;;;;;;;;;;5074558;28;20428;-76
2022/08/19 13:48:23;;;;;;;26.43;24.83;;;;;;;;;;5073798;28;20466;-76
2022/08/19 13:50:51;;;;;;;25.60;24.20;;;;;;;;;;5073982;28;20490;-76
2022/08/19 13:53:19;;;;;;;26.50;24.90;;;;;;;;;;5073980;28;20409;-77
2022/08/19 13:55:46;;;;;;;26.37;24.80;;;;;;;;;;5073391;28;20483;-76
2022/08/19 13:58:14;;;;;;;26.40;24.90;;;;;;;;;;5073927;28;20439;-77
2022/08/19 14:00:44;;;;;;;27.70;25.60;;;;;;;;;;5073720;28;20402;-77
2022/08/19 14:03:12;;;;;;;27.43;25.83;;;;;;;;;;5073738;28;20490;-77
2022/08/19 14:05:39;;;;;;;26.63;25.03;;;;;;;;;;5073767;28;20426;-77
2022/08/19 14:08:07;;;;;;;27.20;25.60;;;;;;;;;;5072149;28;20419;-76
2022/08/19 14:10:34;;;;;;;26.57;24.87;;;;;;;;;;5073164;28;20448;-77
2022/08/19 14:13:02;;;;;;;27.73;26.13;;;;;;;;;;5072426;28;20440;-76
2022/08/19 14:15:30;;;;;;;26.83;25.30;;;;;;;;;;5073040;28;20418;-87
2022/08/19 14:17:59;;;;;;;26.90;24.80;;;;;;;;;;5088539;28;20434;-93
2022/08/19 14:20:27;;;;;;;26.70;25.20;;;;;;;;;;5076644;28;20797;-88
2022/08/19 14:22:55;;;;;;;25.70;24.20;;;;;;;;;;5075380;28;20446;-88
2022/08/19 14:25:24;;;;;;;26.47;24.77;;;;;;;;;;5074397;28;20459;-91
2022/08/19 14:27:52;;;;;;;25.50;24.07;;;;;;;;;;5074700;28;20456;-86
2022/08/19 14:30:20;;;;;;;26.17;24.67;;;;;;;;;;5073481;28;20454;-83
2022/08/19 14:32:47;;;;;;;26.23;24.60;;;;;;;;;;5073714;28;20407;-85
2022/08/19 14:35:18;;;;;;;26.00;24.40;;;;;;;;;;5074348;28;20436;-82
2022/08/19 14:37:46;;;;;;;26.47;24.70;;;;;;;;;;5073212;28;20429;-81
2022/08/19 14:40:14;;;;;;;25.37;23.87;;;;;;;;;;5073200;28;20529;-82
2022/08/19 14:42:41;;;;;;;26.50;24.80;;;;;;;;;;5073241;28;20410;-82